createdAt,value
2022-09-12T00:01:49.463Z,4
2022-09-12T00:04:22.023Z,0
2022-09-12T00:06:55.844Z,0
2022-09-12T00:09:27.932Z,4
2022-09-12T00:12:00.275Z,1
2022-09-12T00:14:32.658Z,0
2022-09-12T00:17:04.937Z,0
2022-09-12T00:19:37.611Z,0
2022-09-12T00:22:09.863Z,0
2022-09-12T00:24:42.520Z,0
2022-09-12T00:27:13.619Z,0
2022-09-12T00:29:45.811Z,0
2022-09-12T00:32:18.103Z,0
2022-09-12T00:34:52.128Z,0
2022-09-12T00:37:24.744Z,0
2022-09-12T00:39:57.913Z,0
2022-09-12T00:42:32.505Z,0
2022-09-12T00:45:05.881Z,0
2022-09-12T00:47:44.249Z,0
2022-09-12T00:50:15.469Z,0
2022-09-12T00:52:47.936Z,0
2022-09-12T00:55:20.041Z,0
2022-09-12T00:57:52.617Z,0
2022-09-12T01:00:27.678Z,0
2022-09-12T01:03:00.415Z,4
2022-09-12T01:05:33.018Z,0
2022-09-12T01:08:05.294Z,3
2022-09-12T01:10:39.115Z,0
2022-09-12T01:13:12.019Z,0
2022-09-12T01:15:44.702Z,0
2022-09-12T01:18:16.761Z,0
2022-09-12T01:20:48.964Z,0
2022-09-12T01:23:21.332Z,0
2022-09-12T01:25:53.701Z,0
2022-09-12T01:28:26.651Z,0
2022-09-12T01:30:58.988Z,0
2022-09-12T01:33:33.140Z,0
2022-09-12T01:36:06.933Z,0
2022-09-12T01:38:47.874Z,0
2022-09-12T01:41:20.640Z,0
2022-09-12T01:43:52.992Z,0
2022-09-12T01:46:28.166Z,0
2022-09-12T01:48:59.679Z,0
2022-09-12T01:51:32.218Z,0
2022-09-12T01:54:04.472Z,0
2022-09-12T01:56:37.937Z,0
2022-09-12T01:59:10.575Z,0
2022-09-12T02:01:44.021Z,0
2022-09-12T02:04:16.227Z,0
2022-09-12T02:06:48.489Z,0
2022-09-12T02:09:20.978Z,0
2022-09-12T02:11:53.325Z,0
2022-09-12T02:14:25.908Z,0
2022-09-12T02:16:58.075Z,0
2022-09-12T02:19:32.333Z,0
2022-09-12T02:22:04.789Z,0
2022-09-12T02:24:37.817Z,0
2022-09-12T02:27:11.846Z,0
2022-09-12T02:29:45.482Z,0
2022-09-12T02:32:17.895Z,0
2022-09-12T02:34:49.926Z,0
2022-09-12T02:37:22.212Z,0
2022-09-12T02:39:55.941Z,0
2022-09-12T02:42:31.196Z,0
2022-09-12T02:45:08.135Z,0
2022-09-12T02:47:42.019Z,0
2022-09-12T02:50:15.839Z,0
2022-09-12T02:52:50.655Z,0
2022-09-12T02:55:23.083Z,0
2022-09-12T02:57:55.402Z,0
2022-09-12T03:00:27.901Z,0
2022-09-12T03:03:01.944Z,0
2022-09-12T03:05:34.245Z,0
2022-09-12T03:08:06.565Z,0
2022-09-12T03:10:36.953Z,0
2022-09-12T03:13:12.467Z,0
2022-09-12T03:15:45.160Z,0
2022-09-12T03:18:19.568Z,0
2022-09-12T03:20:53.451Z,0
2022-09-12T03:23:25.891Z,0
2022-09-12T03:25:58.154Z,0
2022-09-12T03:28:30.741Z,0
2022-09-12T03:31:03.281Z,0
2022-09-12T03:33:35.529Z,0
2022-09-12T03:36:08.177Z,0
2022-09-12T03:38:40.692Z,0
2022-09-12T03:41:13.354Z,0
2022-09-12T03:43:45.829Z,0
2022-09-12T03:46:18.325Z,0
2022-09-12T03:48:50.859Z,0
2022-09-12T03:51:23.500Z,0
2022-09-12T03:53:55.786Z,0
2022-09-12T03:56:28.124Z,0
2022-09-12T03:59:01.803Z,0
2022-09-12T04:01:35.948Z,0
2022-09-12T04:04:10.104Z,0
2022-09-12T04:06:49.440Z,0
2022-09-12T04:09:23.455Z,0
2022-09-12T04:11:57.951Z,0
2022-09-12T04:14:34.041Z,0
2022-09-12T04:17:12.061Z,0
2022-09-12T04:19:44.780Z,0
2022-09-12T04:22:18.131Z,0
2022-09-12T04:24:51.429Z,0
2022-09-12T04:27:26.046Z,0
2022-09-12T04:29:58.555Z,0
2022-09-12T04:32:31.143Z,0
2022-09-12T04:35:03.953Z,0
2022-09-12T04:37:36.139Z,0
2022-09-12T04:40:08.726Z,0
2022-09-12T04:42:41.610Z,0
2022-09-12T04:45:13.996Z,0
2022-09-12T04:47:46.332Z,0
2022-09-12T04:50:18.661Z,0
2022-09-12T04:52:49.613Z,0
2022-09-12T04:55:21.935Z,0
2022-09-12T04:57:54.151Z,0
2022-09-12T05:00:28.844Z,0
2022-09-12T05:03:00.873Z,0
2022-09-12T05:05:35.247Z,0
2022-09-12T05:08:10.964Z,0
2022-09-12T05:10:43.481Z,0
2022-09-12T05:13:17.649Z,4
2022-09-12T05:15:50.199Z,0
2022-09-12T05:18:22.782Z,0
2022-09-12T05:20:55.243Z,0
2022-09-12T05:23:29.089Z,0
2022-09-12T05:26:01.727Z,4
2022-09-12T05:28:34.173Z,4
2022-09-12T05:31:05.515Z,0
2022-09-12T05:33:40.482Z,0
2022-09-12T05:36:18.499Z,0
2022-09-12T05:38:51.013Z,0
2022-09-12T05:41:25.294Z,4
2022-09-12T05:43:58.508Z,0
2022-09-12T05:46:32.172Z,0
2022-09-12T05:49:08.288Z,3
2022-09-12T05:51:40.682Z,4
2022-09-12T05:54:15.820Z,0
2022-09-12T05:56:50.126Z,2
2022-09-12T05:59:21.924Z,1
2022-09-12T06:01:55.249Z,0
2022-09-12T06:04:27.621Z,1
2022-09-12T06:06:59.733Z,0
2022-09-12T06:09:31.698Z,1
2022-09-12T06:12:04.191Z,0
2022-09-12T06:14:37.924Z,0
2022-09-12T06:17:09.980Z,4
2022-09-12T06:19:42.091Z,0
2022-09-12T06:22:15.890Z,0
2022-09-12T06:24:47.778Z,0
2022-09-12T06:27:21.471Z,0
2022-09-12T06:29:53.433Z,0
2022-09-12T06:32:25.011Z,0
2022-09-12T06:34:57.330Z,2
2022-09-12T06:37:29.133Z,4
2022-09-12T06:40:01.915Z,4
2022-09-12T06:42:34.261Z,0
2022-09-12T06:45:08.206Z,4
2022-09-12T06:47:40.052Z,4
2022-09-12T06:50:14.607Z,4
2022-09-12T06:52:46.719Z,4
2022-09-12T06:55:22.573Z,4
2022-09-12T06:58:03.340Z,4
2022-09-12T07:00:35.582Z,3
2022-09-12T07:03:07.959Z,4
2022-09-12T07:05:39.920Z,0
2022-09-12T07:08:11.673Z,4
2022-09-12T07:10:44.161Z,4
2022-09-12T07:13:14.874Z,4
2022-09-12T07:15:46.475Z,4
2022-09-12T07:18:18.701Z,4
2022-09-12T07:20:51.039Z,4
2022-09-12T07:23:23.287Z,4
2022-09-12T07:25:55.407Z,4
2022-09-12T07:28:27.746Z,4
2022-09-12T07:31:01.910Z,4
2022-09-12T07:33:34.675Z,4
2022-09-12T07:36:07.246Z,4
2022-09-12T07:38:39.739Z,4
2022-09-12T07:41:12.085Z,8
2022-09-12T07:43:44.828Z,8
2022-09-12T07:46:17.270Z,3
2022-09-12T07:48:49.921Z,4
2022-09-12T07:51:23.820Z,4
2022-09-12T07:53:56.182Z,7
2022-09-12T07:56:30.598Z,8
2022-09-12T07:59:09.876Z,4
2022-09-12T08:01:42.290Z,5
2022-09-12T08:04:14.759Z,8
2022-09-12T08:06:47.055Z,4
2022-09-12T08:09:19.526Z,8
2022-09-12T08:11:51.876Z,8
2022-09-12T08:14:24.422Z,5
2022-09-12T08:16:56.212Z,7
2022-09-12T08:19:29.697Z,4
2022-09-12T08:22:01.776Z,10
2022-09-12T08:24:33.568Z,8
2022-09-12T08:27:05.727Z,7
2022-09-12T08:29:38.224Z,8
2022-09-12T08:32:10.392Z,8
2022-09-12T08:34:42.924Z,8
2022-09-12T08:37:16.923Z,16
2022-09-12T08:39:49.647Z,8
2022-09-12T08:42:25.965Z,4
2022-09-12T08:44:59.825Z,4
2022-09-12T08:47:31.834Z,6
2022-09-12T08:50:03.882Z,4
2022-09-12T08:52:35.528Z,8
2022-09-12T08:55:08.345Z,8
2022-09-12T08:57:41.276Z,7
2022-09-12T09:00:19.186Z,8
2022-09-12T09:02:51.921Z,7
2022-09-12T09:05:23.755Z,4
2022-09-12T09:07:55.952Z,8
2022-09-12T09:10:30.399Z,8
2022-09-12T09:13:02.758Z,8
2022-09-12T09:15:35.273Z,8
2022-09-12T09:18:07.893Z,8
2022-09-12T09:20:42.480Z,4
2022-09-12T09:23:21.706Z,8
2022-09-12T09:25:55.429Z,7
2022-09-12T09:28:28.125Z,4
2022-09-12T09:31:02.916Z,8
2022-09-12T09:33:34.990Z,8
2022-09-12T09:36:07.219Z,8
2022-09-12T09:38:41.209Z,8
2022-09-12T09:41:15.760Z,5
2022-09-12T09:43:49.651Z,4
2022-09-12T09:46:21.748Z,4
2022-09-12T09:48:57.336Z,4
2022-09-12T09:51:44.614Z,8
2022-09-12T09:54:32.484Z,4
2022-09-12T09:57:05.906Z,4
2022-09-12T09:59:40.054Z,4
2022-09-12T10:02:14.759Z,4
2022-09-12T10:04:56.705Z,4
2022-09-12T10:07:29.258Z,4
2022-09-12T10:10:03.573Z,4
2022-09-12T10:12:35.875Z,4
2022-09-12T10:15:08.522Z,4
2022-09-12T10:17:41.038Z,4
2022-09-12T10:20:21.951Z,8
2022-09-12T10:22:53.922Z,8
2022-09-12T10:25:26.243Z,8
2022-09-12T10:27:58.706Z,4
2022-09-12T10:30:31.099Z,8
2022-09-12T10:33:07.715Z,4
2022-09-12T10:35:42.722Z,14
2022-09-12T10:38:14.762Z,12
2022-09-12T10:40:47.460Z,9
2022-09-12T10:44:09.328Z,8
2022-09-12T10:46:41.859Z,19
2022-09-12T10:49:16.331Z,12
2022-09-12T10:51:50.437Z,8
2022-09-12T10:54:22.965Z,8
2022-09-12T10:56:56.864Z,8
2022-09-12T10:59:29.310Z,4
2022-09-12T11:02:04.267Z,4
2022-09-12T11:04:41.110Z,8
2022-09-12T11:07:14.889Z,8
2022-09-12T11:09:49.193Z,4
2022-09-12T11:12:21.698Z,4
2022-09-12T11:14:55.628Z,4
2022-09-12T11:17:30.086Z,4
2022-09-12T11:20:02.355Z,4
2022-09-12T11:22:35.657Z,4
2022-09-12T11:25:15.123Z,4
2022-09-12T11:27:48.760Z,4
2022-09-12T11:30:21.918Z,4
2022-09-12T11:32:54.191Z,2
2022-09-12T11:35:26.604Z,4
2022-09-12T11:37:59.858Z,2
2022-09-12T11:40:32.560Z,4
2022-09-12T11:43:05.618Z,4
2022-09-12T11:45:40.600Z,4
2022-09-12T11:48:13.460Z,4
2022-09-12T11:50:47.062Z,4
2022-09-12T11:53:19.815Z,4
2022-09-12T11:55:52.652Z,4
2022-09-12T11:58:25.320Z,4
2022-09-12T12:00:58.016Z,4
2022-09-12T12:03:30.567Z,4
2022-09-12T12:06:03.474Z,4
2022-09-12T12:08:38.890Z,4
2022-09-12T12:11:22.044Z,4
2022-09-12T12:13:54.621Z,4
2022-09-12T12:16:29.188Z,4
2022-09-12T12:19:03.599Z,4
2022-09-12T12:21:42.230Z,4
2022-09-12T12:24:15.499Z,4
2022-09-12T12:26:50.013Z,4
2022-09-12T12:29:25.286Z,4
2022-09-12T12:31:59.398Z,4
2022-09-12T12:34:38.883Z,4
2022-09-12T12:37:11.426Z,4
2022-09-12T12:39:44.451Z,4
2022-09-12T12:42:21.442Z,4
2022-09-12T12:44:58.072Z,4
2022-09-12T12:47:32.556Z,4
2022-09-12T12:50:10.441Z,4
2022-09-12T12:52:43.081Z,4
2022-09-12T12:55:13.982Z,4
2022-09-12T12:57:46.415Z,4
2022-09-12T13:00:18.649Z,4
2022-09-12T13:02:51.629Z,4
2022-09-12T13:05:24.270Z,4
2022-09-12T13:07:57.362Z,4
2022-09-12T13:10:31.327Z,4
2022-09-12T13:13:05.825Z,4
2022-09-12T13:15:38.555Z,4
2022-09-12T13:18:16.305Z,4
2022-09-12T13:20:51.087Z,4
2022-09-12T13:23:24.320Z,24
2022-09-12T13:25:56.797Z,21
2022-09-12T13:28:29.410Z,4
2022-09-12T13:31:01.917Z,4
2022-09-12T13:33:38.725Z,4
2022-09-12T13:36:11.573Z,11
2022-09-12T13:38:44.062Z,8
2022-09-12T13:41:19.205Z,7
2022-09-12T13:43:51.325Z,4
2022-09-12T13:46:25.180Z,4
2022-09-12T13:48:57.891Z,4
2022-09-12T13:51:30.263Z,4
2022-09-12T13:54:03.742Z,15
2022-09-12T13:56:36.001Z,4
2022-09-12T13:59:10.229Z,8
2022-09-12T14:01:42.736Z,4
2022-09-12T14:04:14.974Z,4
2022-09-12T14:06:47.218Z,4
2022-09-12T14:09:23.067Z,4
2022-09-12T14:11:56.867Z,4
2022-09-12T14:14:29.728Z,4
2022-09-12T14:17:04.280Z,6
2022-09-12T14:19:36.417Z,1
2022-09-12T14:22:09.760Z,4
2022-09-12T14:24:42.406Z,4
2022-09-12T14:27:14.939Z,4
2022-09-12T14:29:47.755Z,4
2022-09-12T14:32:20.539Z,4
2022-09-12T14:34:53.289Z,4
2022-09-12T14:37:26.163Z,5
2022-09-12T14:39:59.353Z,4
2022-09-12T14:42:31.922Z,4
2022-09-12T14:45:04.695Z,4
2022-09-12T14:47:38.661Z,4
2022-09-12T14:50:11.312Z,4
2022-09-12T14:52:43.951Z,4
2022-09-12T14:55:16.591Z,4
2022-09-12T14:57:49.235Z,4
2022-09-12T15:00:23.400Z,4
2022-09-12T15:02:56.949Z,4
2022-09-12T15:05:29.743Z,4
2022-09-12T15:08:03.696Z,4
2022-09-12T15:10:36.152Z,6
2022-09-12T15:13:09.083Z,4
2022-09-12T15:15:41.831Z,4
2022-09-12T15:18:14.271Z,8
2022-09-12T15:20:46.960Z,4
2022-09-12T15:23:19.762Z,4
2022-09-12T15:25:52.673Z,4
2022-09-12T15:28:26.819Z,8
2022-09-12T15:30:59.405Z,10
2022-09-12T15:33:31.877Z,8
2022-09-12T15:36:09.545Z,4
2022-09-12T15:38:41.649Z,4
2022-09-12T15:41:14.131Z,4
2022-09-12T15:43:46.404Z,4
2022-09-12T15:46:20.418Z,4
2022-09-12T15:48:53.350Z,1
2022-09-12T15:51:26.038Z,4
2022-09-12T15:53:58.728Z,4
2022-09-12T15:56:31.800Z,4
2022-09-12T15:59:04.673Z,4
2022-09-12T16:01:37.682Z,5
2022-09-12T16:04:09.143Z,8
2022-09-12T16:06:41.899Z,8
2022-09-12T16:09:16.728Z,4
2022-09-12T16:11:48.292Z,4
2022-09-12T16:14:20.793Z,4
2022-09-12T16:16:53.348Z,8
2022-09-12T16:19:25.842Z,8
2022-09-12T16:21:57.934Z,8
2022-09-12T16:24:30.565Z,7
2022-09-12T16:27:03.344Z,8
2022-09-12T16:29:35.671Z,8
2022-09-12T16:32:09.880Z,8
2022-09-12T16:34:43.525Z,11
2022-09-12T16:37:14.865Z,8
2022-09-12T16:39:47.054Z,8
2022-09-12T16:42:19.423Z,8
2022-09-12T16:44:51.915Z,9
2022-09-12T16:47:24.523Z,8
2022-09-12T16:49:58.806Z,9
2022-09-12T16:52:30.857Z,8
2022-09-12T16:55:02.864Z,8
2022-09-12T16:57:34.928Z,8
2022-09-12T17:00:06.611Z,8
2022-09-12T17:02:41.541Z,8
2022-09-12T17:05:15.044Z,8
2022-09-12T17:07:47.685Z,10
2022-09-12T17:10:20.308Z,13
2022-09-12T17:12:53.098Z,8
2022-09-12T17:15:27.050Z,8
2022-09-12T17:18:00.143Z,8
2022-09-12T17:20:34.972Z,11
2022-09-12T17:23:09.581Z,8
2022-09-12T17:25:49.046Z,20
2022-09-12T17:28:21.788Z,11
2022-09-12T17:30:54.470Z,12
2022-09-12T17:33:27.504Z,16
2022-09-12T17:36:02.150Z,9
2022-09-12T17:38:34.518Z,8
2022-09-12T17:41:07.144Z,8
2022-09-12T17:43:41.010Z,8
2022-09-12T17:46:13.533Z,16
2022-09-12T17:48:45.321Z,8
2022-09-12T17:51:17.939Z,8
2022-09-12T17:53:53.221Z,12
2022-09-12T17:56:24.939Z,10
2022-09-12T17:58:57.045Z,8
2022-09-12T18:01:29.509Z,8
2022-09-12T18:04:03.160Z,8
2022-09-12T18:06:37.285Z,8
2022-09-12T18:09:10.257Z,8
2022-09-12T18:11:43.844Z,8
2022-09-12T18:14:17.528Z,12
2022-09-12T18:16:51.144Z,8
2022-09-12T18:19:26.818Z,16
2022-09-12T18:21:58.378Z,20
2022-09-12T18:24:30.622Z,16
2022-09-12T18:27:03.505Z,16
2022-09-12T18:29:37.628Z,12
2022-09-12T18:32:10.307Z,13
2022-09-12T18:34:51.136Z,12
2022-09-12T18:37:23.731Z,12
2022-09-12T18:39:54.686Z,12
2022-09-12T18:42:26.878Z,16
2022-09-12T18:44:59.709Z,14
2022-09-12T18:47:32.996Z,9
2022-09-12T18:50:05.310Z,9
2022-09-12T18:52:39.538Z,9
2022-09-12T18:55:12.048Z,12
2022-09-12T18:57:44.255Z,10
2022-09-12T19:00:18.631Z,20
2022-09-12T19:02:50.996Z,12
2022-09-12T19:05:23.870Z,12
2022-09-12T19:07:56.778Z,12
2022-09-12T19:10:29.205Z,11
2022-09-12T19:13:02.482Z,12
2022-09-12T19:15:34.906Z,12
2022-09-12T19:18:07.850Z,12
2022-09-12T19:20:40.846Z,16
2022-09-12T19:23:12.934Z,16
2022-09-12T19:25:45.364Z,12
2022-09-12T19:28:17.810Z,16
2022-09-12T19:30:50.238Z,12
2022-09-12T19:33:22.858Z,16
2022-09-12T19:35:56.876Z,12
2022-09-12T19:38:29.128Z,15
2022-09-12T19:40:59.864Z,12
2022-09-12T19:43:31.730Z,12
2022-09-12T19:46:05.502Z,16
2022-09-12T19:48:38.017Z,16
2022-09-12T19:51:08.698Z,16
2022-09-12T19:53:41.621Z,16
2022-09-12T19:56:13.874Z,16
2022-09-12T19:58:46.110Z,16
2022-09-12T20:01:19.987Z,16
2022-09-12T20:03:54.707Z,16
2022-09-12T20:06:27.109Z,15
2022-09-12T20:09:01.284Z,16
2022-09-12T20:11:33.845Z,12
2022-09-12T20:14:08.384Z,15
2022-09-12T20:16:41.830Z,14
2022-09-12T20:19:24.590Z,16
2022-09-12T20:21:57.614Z,12
2022-09-12T20:24:30.842Z,16
2022-09-12T20:27:03.809Z,16
2022-09-12T20:29:37.345Z,12
2022-09-12T20:32:14.347Z,16
2022-09-12T20:34:54.635Z,16
2022-09-12T20:37:26.762Z,13
2022-09-12T20:39:59.341Z,12
2022-09-12T20:42:34.703Z,16
2022-09-12T20:45:06.499Z,12
2022-09-12T20:48:04.066Z,12
2022-09-12T20:50:35.062Z,16
2022-09-12T20:53:07.006Z,12
2022-09-12T20:55:39.375Z,12
2022-09-12T20:58:12.097Z,12
2022-09-12T21:00:48.257Z,16
2022-09-12T21:03:19.827Z,12
2022-09-12T21:05:52.042Z,12
2022-09-12T21:08:24.265Z,12
2022-09-12T21:10:56.635Z,12
2022-09-12T21:13:28.704Z,12
2022-09-12T21:16:00.806Z,13
2022-09-12T21:18:34.836Z,13
2022-09-12T21:21:08.250Z,16
2022-09-12T21:23:40.485Z,12
2022-09-12T21:26:13.070Z,16
2022-09-12T21:28:45.920Z,19
2022-09-12T21:31:19.771Z,20
2022-09-12T21:33:53.559Z,20
2022-09-12T21:36:35.125Z,20
2022-09-12T21:39:07.704Z,20
2022-09-12T21:41:41.060Z,20
2022-09-12T21:44:13.216Z,20
2022-09-12T21:46:45.807Z,16
2022-09-12T21:49:18.358Z,12
2022-09-12T21:51:52.985Z,20
2022-09-12T21:54:27.481Z,17
2022-09-12T21:57:00.284Z,16
2022-09-12T21:59:32.919Z,16
2022-09-12T22:02:06.068Z,16
2022-09-12T22:04:39.079Z,20
2022-09-12T22:09:51.750Z,13
2022-09-12T22:15:23.242Z,16
2022-09-12T22:18:09.552Z,12
2022-09-12T22:20:44.090Z,12
2022-09-12T22:23:20.168Z,8
2022-09-12T22:26:00.346Z,12
2022-09-12T22:28:32.653Z,12
2022-09-12T22:31:05.311Z,12
2022-09-12T22:33:37.893Z,12
2022-09-12T22:36:10.372Z,12
2022-09-12T22:38:45.397Z,13
2022-09-12T22:41:21.537Z,12
2022-09-12T22:43:54.515Z,12
2022-09-12T22:46:27.083Z,12
2022-09-12T22:48:59.762Z,12
2022-09-12T22:51:35.547Z,12
2022-09-12T22:54:08.048Z,12
2022-09-12T22:56:40.910Z,12
2022-09-12T22:59:14.076Z,16
2022-09-12T23:01:46.402Z,16
2022-09-12T23:04:20.332Z,12
2022-09-12T23:06:52.090Z,16
2022-09-12T23:09:25.135Z,12
2022-09-12T23:12:02.379Z,8
2022-09-12T23:14:35.354Z,12
2022-09-12T23:17:07.933Z,12
2022-09-12T23:19:40.609Z,12
2022-09-12T23:22:13.128Z,12
2022-09-12T23:24:45.355Z,15
2022-09-12T23:27:19.022Z,14
2022-09-12T23:29:53.188Z,12
2022-09-12T23:32:26.230Z,14
2022-09-12T23:34:58.732Z,12
2022-09-12T23:37:29.714Z,12
2022-09-12T23:40:03.470Z,12
2022-09-12T23:42:35.986Z,12
2022-09-12T23:45:13.282Z,12
2022-09-12T23:47:45.669Z,12
2022-09-12T23:50:20.047Z,12
2022-09-12T23:52:52.688Z,12
2022-09-12T23:55:26.048Z,12
2022-09-12T23:58:00.823Z,10
